TimeCDT,TemperatureF,Dew PointF,Humidity,Sea Level PressureIn,VisibilityMPH,Wind Direction,Wind SpeedMPH,Gust SpeedMPH,PrecipitationIn,Events,Conditions,WindDirDegrees,DateUTC
12:15 AM,54.7,53.1,94,30.17,10.0,Calm,Calm,-,N/A,,Clear,0,2013-07-01 05:15:00
12:35 AM,54.1,52.7,95,30.17,10.0,Calm,Calm,-,N/A,,Clear,0,2013-07-01 05:35:00
12:55 AM,53.8,51.8,93,30.17,10.0,Calm,Calm,-,N/A,,Clear,0,2013-07-01 05:55:00
1:15 AM,52.7,51.1,94,30.17,10.0,Calm,Calm,-,N/A,,Clear,0,2013-07-01 06:15:00
1:35 AM,52.0,50.9,96,30.17,10.0,Calm,Calm,-,N/A,,Clear,0,2013-07-01 06:35:00
1:55 AM,52.2,50.9,95,30.18,10.0,Calm,Calm,-,N/A,,Clear,0,2013-07-01 06:55:00
2:15 AM,51.8,50.5,95,30.18,10.0,Calm,Calm,-,N/A,,Clear,0,2013-07-01 07:15:00
2:35 AM,51.6,50.5,96,30.18,10.0,Calm,Calm,-,N/A,,Clear,0,2013-07-01 07:35:00
2:55 AM,50.4,49.6,97,30.18,10.0,Calm,Calm,-,N/A,,Clear,0,2013-07-01 07:55:00
3:15 AM,50.5,50.0,98,30.18,10.0,Calm,Calm,-,N/A,,Clear,0,2013-07-01 08:15:00
3:35 AM,50.0,49.5,98,30.18,7.0,Calm,Calm,-,N/A,,Clear,0,2013-07-01 08:35:00
3:55 AM,50.0,49.3,97,30.19,7.0,Calm,Calm,-,N/A,,Clear,0,2013-07-01 08:55:00
4:15 AM,49.5,49.1,99,30.19,7.0,Calm,Calm,-,N/A,,Clear,0,2013-07-01 09:15:00
4:35 AM,49.5,49.1,99,30.19,7.0,Calm,Calm,-,N/A,,Clear,0,2013-07-01 09:35:00
4:55 AM,50.0,49.3,97,30.20,7.0,Calm,Calm,-,N/A,,Clear,0,2013-07-01 09:55:00
5:15 AM,49.5,48.7,97,30.20,7.0,Calm,Calm,-,N/A,,Clear,0,2013-07-01 10:15:00
5:35 AM,49.1,48.9,99,30.20,5.0,Calm,Calm,-,N/A,,Clear,0,2013-07-01 10:35:00
5:55 AM,49.1,48.9,99,30.21,5.0,Calm,Calm,-,N/A,,Clear,0,2013-07-01 10:55:00
6:15 AM,48.7,48.4,99,30.21,5.0,Calm,Calm,-,N/A,,Clear,0,2013-07-01 11:15:00
6:35 AM,49.8,49.5,99,30.22,5.0,Calm,Calm,-,N/A,,Clear,0,2013-07-01 11:35:00
6:55 AM,51.1,50.7,99,30.22,5.0,Calm,Calm,-,N/A,,Clear,0,2013-07-01 11:55:00
7:15 AM,53.1,52.3,97,30.22,5.0,Calm,Calm,-,N/A,,Clear,0,2013-07-01 12:15:00
7:35 AM,55.2,53.6,94,30.22,5.0,Calm,Calm,-,N/A,,Clear,0,2013-07-01 12:35:00
7:55 AM,57.7,55.6,92,30.23,7.0,Calm,Calm,-,N/A,,Clear,0,2013-07-01 12:55:00
8:15 AM,60.4,57.4,90,30.23,7.0,Calm,Calm,-,N/A,,Scattered Clouds,0,2013-07-01 13:15:00
8:35 AM,64.2,57.0,77,30.23,7.0,North,3.5,-,N/A,,Scattered Clouds,350,2013-07-01 13:35:00
8:55 AM,66.0,56.3,71,30.24,10.0,NNW,4.6,-,N/A,,Scattered Clouds,340,2013-07-01 13:55:00
9:15 AM,68.0,55.6,64,30.24,10.0,NNW,3.5,-,N/A,,Clear,340,2013-07-01 14:15:00
9:35 AM,70.2,55.9,61,30.24,10.0,NNE,5.8,-,N/A,,Clear,20,2013-07-01 14:35:00
9:55 AM,72.0,55.2,55,30.24,10.0,NNE,8.1,-,N/A,,Clear,30,2013-07-01 14:55:00
10:15 AM,73.0,55.6,54,30.23,10.0,NNE,5.8,-,N/A,,Clear,20,2013-07-01 15:15:00
10:35 AM,74.3,55.0,51,30.23,10.0,NNE,11.5,-,N/A,,Clear,30,2013-07-01 15:35:00
10:55 AM,75.2,54.3,48,30.23,10.0,NE,8.1,-,N/A,,Clear,40,2013-07-01 15:55:00
11:15 AM,76.3,51.1,41,30.23,10.0,NE,10.4,-,N/A,,Clear,40,2013-07-01 16:15:00
11:35 AM,77.0,49.6,38,30.23,10.0,NE,8.1,-,N/A,,Clear,40,2013-07-01 16:35:00
11:55 AM,77.7,51.8,40,30.23,10.0,NE,10.4,-,N/A,,Scattered Clouds,40,2013-07-01 16:55:00
12:15 PM,77.2,50.4,39,30.22,10.0,NNE,10.4,16.1,N/A,,Scattered Clouds,20,2013-07-01 17:15:00
12:35 PM,78.8,48.6,34,30.22,10.0,NE,9.2,-,N/A,,Scattered Clouds,50,2013-07-01 17:35:00
12:55 PM,78.6,47.8,34,30.22,10.0,NE,8.1,21.9,N/A,,Scattered Clouds,50,2013-07-01 17:55:00
1:15 PM,79.5,48.6,34,30.22,7.0,NE,11.5,18.4,N/A,,Scattered Clouds,40,2013-07-01 18:15:00
1:35 PM,79.2,49.1,35,30.21,5.0,NE,9.2,-,N/A,,Haze,50,2013-07-01 18:35:00
1:55 PM,78.8,49.8,36,30.21,5.0,NNE,11.5,-,N/A,,Haze,30,2013-07-01 18:55:00
2:15 PM,80.1,51.3,37,30.20,10.0,NE,11.5,-,N/A,Rain,Rain,40,2013-07-01 19:15:00
2:35 PM,81.0,49.5,33,30.20,10.0,NNE,8.1,-,N/A,Rain,Heavy Rain,30,2013-07-01 19:35:00
2:55 PM,80.6,49.5,34,30.19,10.0,NE,8.1,-,N/A,,Scattered Clouds,40,2013-07-01 19:55:00
3:15 PM,80.1,49.6,34,30.19,7.0,NE,8.1,-,N/A,,Scattered Clouds,40,2013-07-01 20:15:00
3:35 PM,80.4,50.0,34,30.18,5.0,North,9.2,-,N/A,,Haze,10,2013-07-01 20:35:00
3:55 PM,81.5,49.6,33,30.18,5.0,ENE,9.2,-,N/A,,Haze,70,2013-07-01 20:55:00
4:15 PM,79.2,48.9,35,30.18,5.0,NNE,8.1,-,N/A,,Haze,30,2013-07-01 21:15:00
4:35 PM,80.1,48.9,34,30.17,5.0,NE,11.5,-,N/A,,Haze,40,2013-07-01 21:35:00
4:55 PM,80.4,50.7,35,30.17,5.0,NE,9.2,-,N/A,,Haze,40,2013-07-01 21:55:00
5:15 PM,81.1,49.8,33,30.17,4.0,NNE,9.2,-,N/A,,Haze,30,2013-07-01 22:15:00
5:35 PM,81.3,49.3,33,30.17,4.0,NNE,11.5,-,N/A,,Haze,30,2013-07-01 22:35:00
5:55 PM,80.4,49.8,34,30.17,5.0,NE,8.1,-,N/A,,Haze,40,2013-07-01 22:55:00
6:15 PM,81.1,50.5,34,30.17,5.0,ENE,5.8,-,N/A,,Haze,60,2013-07-01 23:15:00
6:35 PM,80.6,48.6,33,30.16,5.0,NE,9.2,-,N/A,,Haze,40,2013-07-01 23:35:00
6:55 PM,79.3,49.8,36,30.16,5.0,NE,6.9,-,N/A,,Haze,40,2013-07-01 23:55:00
7:15 PM,79.9,48.9,34,30.16,5.0,NNE,8.1,-,N/A,,Haze,20,2013-07-02 00:15:00
7:35 PM,79.2,50.4,36,30.16,5.0,East,6.9,-,N/A,,Haze,80,2013-07-02 00:35:00
7:55 PM,77.2,52.5,42,30.16,4.0,ENE,4.6,-,N/A,,Haze,70,2013-07-02 00:55:00
8:15 PM,76.1,55.6,49,30.16,5.0,East,3.5,-,N/A,,Haze,80,2013-07-02 01:15:00
8:35 PM,73.0,55.8,55,30.16,5.0,East,4.6,-,N/A,,Haze,80,2013-07-02 01:35:00
8:55 PM,70.2,55.9,61,30.16,5.0,Calm,Calm,-,N/A,,Haze,0,2013-07-02 01:55:00
9:15 PM,68.5,55.9,64,30.16,5.0,NW,3.5,-,N/A,,Haze,310,2013-07-02 02:15:00
9:35 PM,65.5,56.3,72,30.16,4.0,Calm,Calm,-,N/A,Rain,Rain,0,2013-07-02 02:35:00
9:55 PM,63.7,56.8,78,30.17,10.0,Calm,Calm,-,N/A,,Clear,0,2013-07-02 02:55:00
10:15 PM,62.8,57.2,82,30.17,7.0,Calm,Calm,-,N/A,,Clear,0,2013-07-02 03:15:00
10:35 PM,61.7,56.5,83,30.17,10.0,Calm,Calm,-,N/A,,Clear,0,2013-07-02 03:35:00
10:55 PM,61.0,56.1,84,30.17,10.0,Calm,Calm,-,N/A,,Clear,0,2013-07-02 03:55:00
11:15 PM,60.6,55.9,85,30.17,10.0,Calm,Calm,-,N/A,,Scattered Clouds,0,2013-07-02 04:15:00
11:35 PM,60.3,55.9,86,30.17,10.0,Calm,Calm,-,N/A,,Clear,0,2013-07-02 04:35:00
11:55 PM,59.0,55.8,89,30.17,10.0,Calm,Calm,-,N/A,,Scattered Clouds,0,2013-07-02 04:55:00